sensor_id;sensor_type;location;lat;lon;timestamp;P1;durP1;ratioP1;P2;durP2;ratioP2
77417;SDS011;66490;51.484;0.026;2024-01-16T00:01:34;14.95;;;8.60;;
77417;SDS011;66490;51.484;0.026;2024-01-16T00:04:18;18.03;;;7.37;;
77417;SDS011;66490;51.484;0.026;2024-01-16T00:07:02;19.30;;;7.75;;
77417;SDS011;66490;51.484;0.026;2024-01-16T00:09:46;16.58;;;8.40;;
77417;SDS011;66490;51.484;0.026;2024-01-16T00:12:31;19.80;;;7.70;;
77417;SDS011;66490;51.484;0.026;2024-01-16T00:15:15;15.65;;;8.05;;
77417;SDS011;66490;51.484;0.026;2024-01-16T00:17:58;17.90;;;7.43;;
77417;SDS011;66490;51.484;0.026;2024-01-16T00:20:45;14.52;;;7.65;;
77417;SDS011;66490;51.484;0.026;2024-01-16T00:23:29;17.80;;;7.63;;
77417;SDS011;66490;51.484;0.026;2024-01-16T00:26:19;15.05;;;7.25;;
77417;SDS011;66490;51.484;0.026;2024-01-16T00:29:03;16.33;;;8.57;;
77417;SDS011;66490;51.484;0.026;2024-01-16T00:31:48;21.57;;;7.50;;
77417;SDS011;66490;51.484;0.026;2024-01-16T00:34:31;13.13;;;7.18;;
77417;SDS011;66490;51.484;0.026;2024-01-16T00:37:16;13.68;;;7.65;;
77417;SDS011;66490;51.484;0.026;2024-01-16T00:40:00;20.73;;;8.20;;
77417;SDS011;66490;51.484;0.026;2024-01-16T00:42:44;17.20;;;7.50;;
77417;SDS011;66490;51.484;0.026;2024-01-16T00:45:28;14.30;;;7.40;;
77417;SDS011;66490;51.484;0.026;2024-01-16T00:48:12;19.02;;;7.60;;
77417;SDS011;66490;51.484;0.026;2024-01-16T00:50:57;17.80;;;6.65;;
77417;SDS011;66490;51.484;0.026;2024-01-16T00:53:41;15.65;;;7.30;;
77417;SDS011;66490;51.484;0.026;2024-01-16T00:56:26;20.65;;;7.40;;
77417;SDS011;66490;51.484;0.026;2024-01-16T00:59:11;15.27;;;6.53;;
77417;SDS011;66490;51.484;0.026;2024-01-16T01:01:56;15.60;;;6.50;;
77417;SDS011;66490;51.484;0.026;2024-01-16T01:04:40;17.08;;;7.25;;
77417;SDS011;66490;51.484;0.026;2024-01-16T01:07:25;13.57;;;5.95;;
77417;SDS011;66490;51.484;0.026;2024-01-16T01:10:09;17.23;;;7.20;;
77417;SDS011;66490;51.484;0.026;2024-01-16T01:12:53;14.00;;;6.67;;
77417;SDS011;66490;51.484;0.026;2024-01-16T01:15:37;15.98;;;7.25;;
77417;SDS011;66490;51.484;0.026;2024-01-16T01:18:21;20.20;;;7.05;;
77417;SDS011;66490;51.484;0.026;2024-01-16T01:21:06;16.30;;;7.57;;
77417;SDS011;66490;51.484;0.026;2024-01-16T01:23:50;15.68;;;7.38;;
77417;SDS011;66490;51.484;0.026;2024-01-16T01:26:34;15.40;;;7.27;;
77417;SDS011;66490;51.484;0.026;2024-01-16T01:29:18;14.55;;;6.68;;
77417;SDS011;66490;51.484;0.026;2024-01-16T01:32:02;13.93;;;6.82;;
77417;SDS011;66490;51.484;0.026;2024-01-16T01:34:46;14.95;;;6.75;;
77417;SDS011;66490;51.484;0.026;2024-01-16T01:37:30;12.95;;;6.78;;
77417;SDS011;66490;51.484;0.026;2024-01-16T01:40:14;13.73;;;6.37;;
77417;SDS011;66490;51.484;0.026;2024-01-16T01:43:16;12.70;;;6.15;;
77417;SDS011;66490;51.484;0.026;2024-01-16T01:48:46;13.45;;;6.18;;
77417;SDS011;66490;51.484;0.026;2024-01-16T01:51:31;15.98;;;6.50;;
77417;SDS011;66490;51.484;0.026;2024-01-16T01:54:15;13.20;;;5.47;;
77417;SDS011;66490;51.484;0.026;2024-01-16T01:56:59;16.77;;;5.85;;
77417;SDS011;66490;51.484;0.026;2024-01-16T01:59:43;16.45;;;5.97;;
77417;SDS011;66490;51.484;0.026;2024-01-16T02:02:27;16.58;;;5.97;;
77417;SDS011;66490;51.484;0.026;2024-01-16T02:05:11;13.00;;;6.75;;
77417;SDS011;66490;51.484;0.026;2024-01-16T02:07:55;15.07;;;6.70;;
77417;SDS011;66490;51.484;0.026;2024-01-16T02:10:39;12.60;;;5.75;;
77417;SDS011;66490;51.484;0.026;2024-01-16T02:13:27;14.82;;;7.00;;
77417;SDS011;66490;51.484;0.026;2024-01-16T02:16:21;10.73;;;5.43;;
77417;SDS011;66490;51.484;0.026;2024-01-16T02:19:05;13.40;;;5.50;;
77417;SDS011;66490;51.484;0.026;2024-01-16T02:21:50;12.53;;;5.00;;
77417;SDS011;66490;51.484;0.026;2024-01-16T02:24:35;12.63;;;5.40;;
77417;SDS011;66490;51.484;0.026;2024-01-16T02:27:19;15.38;;;6.68;;
77417;SDS011;66490;51.484;0.026;2024-01-16T02:30:03;13.57;;;6.32;;
77417;SDS011;66490;51.484;0.026;2024-01-16T02:32:47;13.60;;;5.60;;
77417;SDS011;66490;51.484;0.026;2024-01-16T02:35:31;17.10;;;5.50;;
77417;SDS011;66490;51.484;0.026;2024-01-16T02:38:15;13.27;;;5.25;;
77417;SDS011;66490;51.484;0.026;2024-01-16T02:40:59;13.48;;;5.93;;
77417;SDS011;66490;51.484;0.026;2024-01-16T02:43:44;13.80;;;5.15;;
77417;SDS011;66490;51.484;0.026;2024-01-16T02:46:27;11.48;;;5.90;;
77417;SDS011;66490;51.484;0.026;2024-01-16T02:49:11;14.13;;;5.07;;
77417;SDS011;66490;51.484;0.026;2024-01-16T02:51:55;12.13;;;5.82;;
77417;SDS011;66490;51.484;0.026;2024-01-16T02:54:39;8.65;;;4.50;;
77417;SDS011;66490;51.484;0.026;2024-01-16T02:57:23;10.30;;;4.72;;
77417;SDS011;66490;51.484;0.026;2024-01-16T03:00:07;10.45;;;5.85;;
77417;SDS011;66490;51.484;0.026;2024-01-16T03:02:51;14.33;;;5.40;;
77417;SDS011;66490;51.484;0.026;2024-01-16T03:05:36;12.30;;;5.18;;
77417;SDS011;66490;51.484;0.026;2024-01-16T03:08:19;11.00;;;5.57;;
77417;SDS011;66490;51.484;0.026;2024-01-16T03:11:03;10.55;;;4.97;;
77417;SDS011;66490;51.484;0.026;2024-01-16T03:13:47;12.30;;;5.65;;
77417;SDS011;66490;51.484;0.026;2024-01-16T03:16:33;15.70;;;5.17;;
77417;SDS011;66490;51.484;0.026;2024-01-16T03:19:17;14.48;;;5.30;;
77417;SDS011;66490;51.484;0.026;2024-01-16T03:22:01;13.13;;;5.68;;
77417;SDS011;66490;51.484;0.026;2024-01-16T03:24:45;9.27;;;4.50;;
77417;SDS011;66490;51.484;0.026;2024-01-16T03:27:29;9.85;;;5.43;;
77417;SDS011;66490;51.484;0.026;2024-01-16T03:30:13;16.17;;;5.00;;
77417;SDS011;66490;51.484;0.026;2024-01-16T03:32:57;11.20;;;5.35;;
77417;SDS011;66490;51.484;0.026;2024-01-16T03:35:41;12.05;;;5.18;;
77417;SDS011;66490;51.484;0.026;2024-01-16T03:38:25;12.48;;;5.45;;
77417;SDS011;66490;51.484;0.026;2024-01-16T03:41:12;14.82;;;6.07;;
77417;SDS011;66490;51.484;0.026;2024-01-16T03:43:59;8.97;;;4.80;;
77417;SDS011;66490;51.484;0.026;2024-01-16T03:46:44;13.43;;;5.00;;
77417;SDS011;66490;51.484;0.026;2024-01-16T03:49:28;11.45;;;5.85;;
77417;SDS011;66490;51.484;0.026;2024-01-16T03:52:12;10.80;;;5.10;;
77417;SDS011;66490;51.484;0.026;2024-01-16T03:54:56;15.25;;;6.55;;
77417;SDS011;66490;51.484;0.026;2024-01-16T03:57:40;12.10;;;5.07;;
77417;SDS011;66490;51.484;0.026;2024-01-16T04:00:24;10.43;;;4.75;;
77417;SDS011;66490;51.484;0.026;2024-01-16T04:03:08;7.90;;;4.55;;
77417;SDS011;66490;51.484;0.026;2024-01-16T04:05:52;9.93;;;4.63;;
77417;SDS011;66490;51.484;0.026;2024-01-16T04:08:36;15.70;;;4.70;;
77417;SDS011;66490;51.484;0.026;2024-01-16T04:11:20;9.93;;;4.23;;
77417;SDS011;66490;51.484;0.026;2024-01-16T04:14:04;11.57;;;4.13;;
77417;SDS011;66490;51.484;0.026;2024-01-16T04:16:48;9.15;;;5.03;;
77417;SDS011;66490;51.484;0.026;2024-01-16T04:19:32;9.32;;;4.20;;
77417;SDS011;66490;51.484;0.026;2024-01-16T04:22:17;11.25;;;4.47;;
77417;SDS011;66490;51.484;0.026;2024-01-16T04:25:01;9.43;;;3.10;;
77417;SDS011;66490;51.484;0.026;2024-01-16T04:27:47;12.90;;;4.50;;
77417;SDS011;66490;51.484;0.026;2024-01-16T04:30:31;11.60;;;4.40;;
77417;SDS011;66490;51.484;0.026;2024-01-16T04:33:15;12.55;;;5.07;;
77417;SDS011;66490;51.484;0.026;2024-01-16T04:35:59;9.32;;;4.53;;
77417;SDS011;66490;51.484;0.026;2024-01-16T04:38:43;10.43;;;4.10;;
77417;SDS011;66490;51.484;0.026;2024-01-16T04:41:27;12.00;;;4.32;;
77417;SDS011;66490;51.484;0.026;2024-01-16T04:44:11;8.82;;;3.60;;
77417;SDS011;66490;51.484;0.026;2024-01-16T04:46:55;11.95;;;4.25;;
77417;SDS011;66490;51.484;0.026;2024-01-16T04:49:40;10.23;;;5.15;;
77417;SDS011;66490;51.484;0.026;2024-01-16T04:52:24;10.37;;;4.57;;
77417;SDS011;66490;51.484;0.026;2024-01-16T04:55:08;11.32;;;3.63;;
77417;SDS011;66490;51.484;0.026;2024-01-16T04:57:52;12.40;;;4.25;;
77417;SDS011;66490;51.484;0.026;2024-01-16T05:00:36;15.45;;;4.72;;
77417;SDS011;66490;51.484;0.026;2024-01-16T05:03:20;11.55;;;4.90;;
77417;SDS011;66490;51.484;0.026;2024-01-16T05:06:04;9.53;;;4.50;;
77417;SDS011;66490;51.484;0.026;2024-01-16T05:08:48;9.27;;;4.53;;
77417;SDS011;66490;51.484;0.026;2024-01-16T05:11:32;9.98;;;3.72;;
77417;SDS011;66490;51.484;0.026;2024-01-16T05:14:16;12.43;;;4.68;;
77417;SDS011;66490;51.484;0.026;2024-01-16T05:17:00;10.82;;;4.95;;
77417;SDS011;66490;51.484;0.026;2024-01-16T05:19:44;12.87;;;4.40;;
77417;SDS011;66490;51.484;0.026;2024-01-16T05:22:28;13.52;;;4.53;;
77417;SDS011;66490;51.484;0.026;2024-01-16T05:25:12;8.88;;;3.47;;
77417;SDS011;66490;51.484;0.026;2024-01-16T05:27:56;11.88;;;5.18;;
77417;SDS011;66490;51.484;0.026;2024-01-16T05:30:40;12.45;;;4.57;;
77417;SDS011;66490;51.484;0.026;2024-01-16T05:33:24;9.03;;;3.93;;
77417;SDS011;66490;51.484;0.026;2024-01-16T05:36:08;14.85;;;4.57;;
77417;SDS011;66490;51.484;0.026;2024-01-16T05:38:52;10.95;;;3.95;;
77417;SDS011;66490;51.484;0.026;2024-01-16T05:41:37;9.60;;;4.10;;
77417;SDS011;66490;51.484;0.026;2024-01-16T05:44:21;11.35;;;4.60;;
77417;SDS011;66490;51.484;0.026;2024-01-16T05:47:05;11.07;;;4.37;;
77417;SDS011;66490;51.484;0.026;2024-01-16T05:49:49;11.05;;;4.10;;
77417;SDS011;66490;51.484;0.026;2024-01-16T05:52:33;11.70;;;4.43;;
77417;SDS011;66490;51.484;0.026;2024-01-16T05:55:17;10.18;;;3.63;;
77417;SDS011;66490;51.484;0.026;2024-01-16T05:58:01;9.43;;;4.00;;
77417;SDS011;66490;51.484;0.026;2024-01-16T06:00:45;9.90;;;4.17;;
77417;SDS011;66490;51.484;0.026;2024-01-16T06:03:29;7.75;;;3.83;;
77417;SDS011;66490;51.484;0.026;2024-01-16T06:06:13;9.65;;;4.35;;
77417;SDS011;66490;51.484;0.026;2024-01-16T06:08:57;8.98;;;3.95;;
77417;SDS011;66490;51.484;0.026;2024-01-16T06:11:42;12.68;;;5.00;;
77417;SDS011;66490;51.484;0.026;2024-01-16T06:14:26;9.43;;;3.57;;
77417;SDS011;66490;51.484;0.026;2024-01-16T06:17:10;6.57;;;3.30;;
77417;SDS011;66490;51.484;0.026;2024-01-16T06:19:57;8.65;;;3.42;;
77417;SDS011;66490;51.484;0.026;2024-01-16T06:22:41;8.45;;;3.75;;
77417;SDS011;66490;51.484;0.026;2024-01-16T06:25:25;9.13;;;4.13;;
77417;SDS011;66490;51.484;0.026;2024-01-16T06:28:09;9.80;;;4.10;;
77417;SDS011;66490;51.484;0.026;2024-01-16T06:30:52;9.50;;;3.70;;
77417;SDS011;66490;51.484;0.026;2024-01-16T06:33:36;13.38;;;4.53;;
77417;SDS011;66490;51.484;0.026;2024-01-16T06:36:20;9.10;;;3.42;;
77417;SDS011;66490;51.484;0.026;2024-01-16T06:39:04;10.48;;;4.68;;
77417;SDS011;66490;51.484;0.026;2024-01-16T06:41:48;7.87;;;3.43;;
77417;SDS011;66490;51.484;0.026;2024-01-16T06:44:32;10.10;;;3.50;;
77417;SDS011;66490;51.484;0.026;2024-01-16T06:47:16;10.60;;;4.45;;
77417;SDS011;66490;51.484;0.026;2024-01-16T06:50:00;11.82;;;3.58;;
77417;SDS011;66490;51.484;0.026;2024-01-16T06:52:44;7.63;;;4.15;;
77417;SDS011;66490;51.484;0.026;2024-01-16T06:55:28;9.73;;;3.90;;
77417;SDS011;66490;51.484;0.026;2024-01-16T06:58:12;9.15;;;3.40;;
77417;SDS011;66490;51.484;0.026;2024-01-16T07:00:56;11.10;;;3.67;;
77417;SDS011;66490;51.484;0.026;2024-01-16T07:03:40;11.45;;;3.88;;
77417;SDS011;66490;51.484;0.026;2024-01-16T07:06:24;8.68;;;4.18;;
77417;SDS011;66490;51.484;0.026;2024-01-16T07:09:08;11.90;;;4.50;;
77417;SDS011;66490;51.484;0.026;2024-01-16T07:11:54;10.32;;;4.07;;
77417;SDS011;66490;51.484;0.026;2024-01-16T07:14:38;11.35;;;4.60;;
77417;SDS011;66490;51.484;0.026;2024-01-16T07:17:23;10.18;;;3.85;;
77417;SDS011;66490;51.484;0.026;2024-01-16T07:20:08;10.38;;;4.90;;
77417;SDS011;66490;51.484;0.026;2024-01-16T07:22:52;14.10;;;4.53;;
77417;SDS011;66490;51.484;0.026;2024-01-16T07:25:36;9.27;;;3.78;;
77417;SDS011;66490;51.484;0.026;2024-01-16T07:28:20;13.77;;;4.68;;
77417;SDS011;66490;51.484;0.026;2024-01-16T07:31:05;8.77;;;3.45;;
77417;SDS011;66490;51.484;0.026;2024-01-16T07:33:50;9.57;;;4.57;;
77417;SDS011;66490;51.484;0.026;2024-01-16T07:36:36;8.93;;;4.27;;
77417;SDS011;66490;51.484;0.026;2024-01-16T07:39:20;7.63;;;4.47;;
77417;SDS011;66490;51.484;0.026;2024-01-16T07:42:06;9.65;;;3.72;;
77417;SDS011;66490;51.484;0.026;2024-01-16T07:44:52;9.85;;;4.38;;
77417;SDS011;66490;51.484;0.026;2024-01-16T07:47:38;13.88;;;4.55;;
77417;SDS011;66490;51.484;0.026;2024-01-16T07:50:22;8.67;;;4.10;;
77417;SDS011;66490;51.484;0.026;2024-01-16T07:53:06;10.27;;;4.32;;
77417;SDS011;66490;51.484;0.026;2024-01-16T07:55:49;10.23;;;4.85;;
77417;SDS011;66490;51.484;0.026;2024-01-16T07:58:34;9.68;;;3.90;;
77417;SDS011;66490;51.484;0.026;2024-01-16T08:01:19;11.00;;;5.32;;
77417;SDS011;66490;51.484;0.026;2024-01-16T08:04:03;10.93;;;4.17;;
77417;SDS011;66490;51.484;0.026;2024-01-16T08:06:47;11.13;;;4.63;;
77417;SDS011;66490;51.484;0.026;2024-01-16T08:09:31;14.32;;;5.15;;
77417;SDS011;66490;51.484;0.026;2024-01-16T08:12:15;10.48;;;4.53;;
77417;SDS011;66490;51.484;0.026;2024-01-16T08:14:59;12.13;;;5.38;;
77417;SDS011;66490;51.484;0.026;2024-01-16T08:17:43;14.63;;;5.20;;
77417;SDS011;66490;51.484;0.026;2024-01-16T08:20:27;14.30;;;5.57;;
77417;SDS011;66490;51.484;0.026;2024-01-16T08:23:11;15.43;;;5.53;;
77417;SDS011;66490;51.484;0.026;2024-01-16T08:25:56;13.73;;;5.65;;
77417;SDS011;66490;51.484;0.026;2024-01-16T08:28:40;12.23;;;5.40;;
77417;SDS011;66490;51.484;0.026;2024-01-16T08:31:24;9.43;;;4.77;;
77417;SDS011;66490;51.484;0.026;2024-01-16T08:34:08;11.90;;;4.70;;
77417;SDS011;66490;51.484;0.026;2024-01-16T08:36:52;13.10;;;5.15;;
77417;SDS011;66490;51.484;0.026;2024-01-16T08:39:40;13.30;;;4.30;;
77417;SDS011;66490;51.484;0.026;2024-01-16T08:42:24;11.25;;;5.22;;
77417;SDS011;66490;51.484;0.026;2024-01-16T08:45:08;12.67;;;4.23;;
77417;SDS011;66490;51.484;0.026;2024-01-16T08:48:10;10.95;;;4.40;;
77417;SDS011;66490;51.484;0.026;2024-01-16T08:51:14;8.40;;;4.15;;
77417;SDS011;66490;51.484;0.026;2024-01-16T08:54:01;8.38;;;4.30;;
77417;SDS011;66490;51.484;0.026;2024-01-16T08:56:47;12.98;;;5.32;;
77417;SDS011;66490;51.484;0.026;2024-01-16T08:59:32;14.37;;;4.50;;
77417;SDS011;66490;51.484;0.026;2024-01-16T09:02:15;8.75;;;3.97;;
77417;SDS011;66490;51.484;0.026;2024-01-16T09:04:59;14.73;;;5.32;;
77417;SDS011;66490;51.484;0.026;2024-01-16T09:07:43;11.60;;;4.20;;
77417;SDS011;66490;51.484;0.026;2024-01-16T09:10:27;9.70;;;4.65;;
77417;SDS011;66490;51.484;0.026;2024-01-16T09:13:14;9.73;;;3.97;;
77417;SDS011;66490;51.484;0.026;2024-01-16T09:15:58;10.57;;;4.47;;
77417;SDS011;66490;51.484;0.026;2024-01-16T09:18:42;13.98;;;4.57;;
77417;SDS011;66490;51.484;0.026;2024-01-16T09:21:26;12.82;;;4.40;;
77417;SDS011;66490;51.484;0.026;2024-01-16T09:24:09;13.98;;;5.55;;
77417;SDS011;66490;51.484;0.026;2024-01-16T09:26:56;9.70;;;4.70;;
77417;SDS011;66490;51.484;0.026;2024-01-16T09:29:42;11.45;;;5.68;;
77417;SDS011;66490;51.484;0.026;2024-01-16T09:32:26;11.48;;;5.80;;
77417;SDS011;66490;51.484;0.026;2024-01-16T09:35:10;10.75;;;4.25;;
77417;SDS011;66490;51.484;0.026;2024-01-16T09:37:55;10.65;;;5.43;;
77417;SDS011;66490;51.484;0.026;2024-01-16T09:40:39;10.17;;;4.17;;
77417;SDS011;66490;51.484;0.026;2024-01-16T09:43:23;8.48;;;4.25;;
77417;SDS011;66490;51.484;0.026;2024-01-16T09:46:14;10.13;;;4.47;;
77417;SDS011;66490;51.484;0.026;2024-01-16T09:49:02;15.00;;;4.85;;
77417;SDS011;66490;51.484;0.026;2024-01-16T09:51:47;11.52;;;5.18;;
77417;SDS011;66490;51.484;0.026;2024-01-16T09:54:31;16.17;;;4.60;;
77417;SDS011;66490;51.484;0.026;2024-01-16T09:57:18;11.75;;;4.70;;
77417;SDS011;66490;51.484;0.026;2024-01-16T10:00:04;16.15;;;5.00;;
77417;SDS011;66490;51.484;0.026;2024-01-16T10:02:52;11.27;;;4.38;;
77417;SDS011;66490;51.484;0.026;2024-01-16T10:05:36;10.57;;;5.18;;
77417;SDS011;66490;51.484;0.026;2024-01-16T10:08:21;11.73;;;4.37;;
77417;SDS011;66490;51.484;0.026;2024-01-16T10:11:08;7.95;;;3.47;;
77417;SDS011;66490;51.484;0.026;2024-01-16T10:13:52;14.40;;;3.75;;
77417;SDS011;66490;51.484;0.026;2024-01-16T10:16:55;14.45;;;4.38;;
77417;SDS011;66490;51.484;0.026;2024-01-16T10:19:47;13.32;;;3.97;;
77417;SDS011;66490;51.484;0.026;2024-01-16T10:22:32;8.80;;;3.37;;
77417;SDS011;66490;51.484;0.026;2024-01-16T10:25:19;13.60;;;2.53;;
77417;SDS011;66490;51.484;0.026;2024-01-16T10:28:05;12.95;;;3.25;;
77417;SDS011;66490;51.484;0.026;2024-01-16T10:30:58;14.32;;;2.63;;
77417;SDS011;66490;51.484;0.026;2024-01-16T10:33:45;6.38;;;2.47;;
77417;SDS011;66490;51.484;0.026;2024-01-16T10:36:29;17.40;;;2.60;;
77417;SDS011;66490;51.484;0.026;2024-01-16T10:39:15;7.57;;;2.53;;
77417;SDS011;66490;51.484;0.026;2024-01-16T10:41:59;9.48;;;3.67;;
77417;SDS011;66490;51.484;0.026;2024-01-16T10:44:53;7.13;;;2.97;;
77417;SDS011;66490;51.484;0.026;2024-01-16T10:47:40;7.07;;;3.60;;
77417;SDS011;66490;51.484;0.026;2024-01-16T10:50:26;10.17;;;2.60;;
77417;SDS011;66490;51.484;0.026;2024-01-16T10:53:20;11.98;;;3.35;;
77417;SDS011;66490;51.484;0.026;2024-01-16T10:56:20;8.80;;;3.80;;
77417;SDS011;66490;51.484;0.026;2024-01-16T10:59:18;10.30;;;3.35;;
77417;SDS011;66490;51.484;0.026;2024-01-16T11:02:10;7.70;;;2.78;;
77417;SDS011;66490;51.484;0.026;2024-01-16T11:04:59;6.20;;;2.40;;
77417;SDS011;66490;51.484;0.026;2024-01-16T11:07:43;8.85;;;2.38;;
77417;SDS011;66490;51.484;0.026;2024-01-16T11:10:31;6.70;;;2.63;;
77417;SDS011;66490;51.484;0.026;2024-01-16T11:13:29;6.30;;;2.63;;
77417;SDS011;66490;51.484;0.026;2024-01-16T11:16:24;9.18;;;2.85;;
77417;SDS011;66490;51.484;0.026;2024-01-16T11:19:12;10.83;;;2.47;;
77417;SDS011;66490;51.484;0.026;2024-01-16T11:22:05;7.40;;;2.25;;
77417;SDS011;66490;51.484;0.026;2024-01-16T11:25:13;7.65;;;3.22;;
77417;SDS011;66490;51.484;0.026;2024-01-16T11:28:07;9.50;;;2.47;;
77417;SDS011;66490;51.484;0.026;2024-01-16T11:34:00;7.93;;;2.03;;
77417;SDS011;66490;51.484;0.026;2024-01-16T11:39:41;4.85;;;2.00;;
77417;SDS011;66490;51.484;0.026;2024-01-16T11:42:30;5.72;;;1.80;;
77417;SDS011;66490;51.484;0.026;2024-01-16T11:48:17;5.93;;;2.13;;
77417;SDS011;66490;51.484;0.026;2024-01-16T11:51:23;6.22;;;1.55;;
77417;SDS011;66490;51.484;0.026;2024-01-16T11:54:07;7.45;;;1.88;;
77417;SDS011;66490;51.484;0.026;2024-01-16T11:57:06;6.38;;;1.02;;
77417;SDS011;66490;51.484;0.026;2024-01-16T12:00:02;6.40;;;2.00;;
77417;SDS011;66490;51.484;0.026;2024-01-16T12:02:56;6.57;;;1.47;;
77417;SDS011;66490;51.484;0.026;2024-01-16T12:06:00;4.40;;;1.20;;
77417;SDS011;66490;51.484;0.026;2024-01-16T12:09:17;5.15;;;1.52;;
77417;SDS011;66490;51.484;0.026;2024-01-16T12:12:10;5.40;;;1.70;;
77417;SDS011;66490;51.484;0.026;2024-01-16T12:15:04;6.20;;;2.03;;
77417;SDS011;66490;51.484;0.026;2024-01-16T12:17:52;6.93;;;1.37;;
77417;SDS011;66490;51.484;0.026;2024-01-16T12:20:36;7.18;;;1.90;;
77417;SDS011;66490;51.484;0.026;2024-01-16T12:23:24;4.72;;;1.52;;
77417;SDS011;66490;51.484;0.026;2024-01-16T12:26:20;5.93;;;2.10;;
77417;SDS011;66490;51.484;0.026;2024-01-16T12:29:04;9.32;;;2.75;;
77417;SDS011;66490;51.484;0.026;2024-01-16T12:31:51;6.40;;;2.33;;
77417;SDS011;66490;51.484;0.026;2024-01-16T12:35:06;9.30;;;2.60;;
77417;SDS011;66490;51.484;0.026;2024-01-16T12:38:02;9.55;;;3.38;;
77417;SDS011;66490;51.484;0.026;2024-01-16T12:40:52;13.02;;;3.03;;
77417;SDS011;66490;51.484;0.026;2024-01-16T12:43:36;13.65;;;3.30;;
77417;SDS011;66490;51.484;0.026;2024-01-16T12:46:23;11.30;;;3.27;;
77417;SDS011;66490;51.484;0.026;2024-01-16T12:49:07;7.43;;;2.72;;
77417;SDS011;66490;51.484;0.026;2024-01-16T12:55:03;7.80;;;2.10;;
77417;SDS011;66490;51.484;0.026;2024-01-16T12:57:48;9.70;;;2.58;;
77417;SDS011;66490;51.484;0.026;2024-01-16T13:00:38;8.60;;;3.30;;
77417;SDS011;66490;51.484;0.026;2024-01-16T13:03:27;8.55;;;2.40;;
77417;SDS011;66490;51.484;0.026;2024-01-16T13:06:11;9.07;;;2.65;;
77417;SDS011;66490;51.484;0.026;2024-01-16T13:09:07;11.07;;;2.33;;
77417;SDS011;66490;51.484;0.026;2024-01-16T13:11:59;9.27;;;2.60;;
77417;SDS011;66490;51.484;0.026;2024-01-16T13:14:44;6.80;;;1.97;;
77417;SDS011;66490;51.484;0.026;2024-01-16T13:17:28;9.52;;;2.13;;
77417;SDS011;66490;51.484;0.026;2024-01-16T13:20:12;7.20;;;2.22;;
77417;SDS011;66490;51.484;0.026;2024-01-16T13:23:04;6.63;;;2.38;;
77417;SDS011;66490;51.484;0.026;2024-01-16T13:25:49;6.82;;;2.28;;
77417;SDS011;66490;51.484;0.026;2024-01-16T13:28:33;9.30;;;1.77;;
77417;SDS011;66490;51.484;0.026;2024-01-16T13:31:19;9.43;;;2.13;;
77417;SDS011;66490;51.484;0.026;2024-01-16T13:34:10;8.30;;;2.03;;
77417;SDS011;66490;51.484;0.026;2024-01-16T13:37:00;7.03;;;1.92;;
77417;SDS011;66490;51.484;0.026;2024-01-16T13:43:17;7.63;;;2.00;;
77417;SDS011;66490;51.484;0.026;2024-01-16T13:46:01;8.10;;;2.33;;
77417;SDS011;66490;51.484;0.026;2024-01-16T13:48:47;6.95;;;2.47;;
77417;SDS011;66490;51.484;0.026;2024-01-16T13:51:31;8.25;;;2.10;;
77417;SDS011;66490;51.484;0.026;2024-01-16T13:54:21;9.98;;;2.20;;
77417;SDS011;66490;51.484;0.026;2024-01-16T13:57:05;5.27;;;1.80;;
77417;SDS011;66490;51.484;0.026;2024-01-16T13:59:49;9.77;;;2.45;;
77417;SDS011;66490;51.484;0.026;2024-01-16T14:02:34;6.15;;;2.00;;
77417;SDS011;66490;51.484;0.026;2024-01-16T14:05:20;5.22;;;1.40;;
77417;SDS011;66490;51.484;0.026;2024-01-16T14:08:05;6.32;;;2.58;;
77417;SDS011;66490;51.484;0.026;2024-01-16T14:10:49;8.40;;;2.10;;
77417;SDS011;66490;51.484;0.026;2024-01-16T14:13:33;6.38;;;1.38;;
77417;SDS011;66490;51.484;0.026;2024-01-16T14:16:20;5.35;;;1.83;;
77417;SDS011;66490;51.484;0.026;2024-01-16T14:22:00;9.95;;;3.20;;
77417;SDS011;66490;51.484;0.026;2024-01-16T14:24:44;5.90;;;2.13;;
77417;SDS011;66490;51.484;0.026;2024-01-16T14:27:31;9.43;;;2.55;;
77417;SDS011;66490;51.484;0.026;2024-01-16T14:30:20;8.68;;;2.35;;
77417;SDS011;66490;51.484;0.026;2024-01-16T14:33:07;11.23;;;2.45;;
77417;SDS011;66490;51.484;0.026;2024-01-16T14:35:52;8.05;;;2.15;;
77417;SDS011;66490;51.484;0.026;2024-01-16T14:38:36;7.03;;;2.30;;
77417;SDS011;66490;51.484;0.026;2024-01-16T14:41:28;8.35;;;2.88;;
77417;SDS011;66490;51.484;0.026;2024-01-16T14:44:16;11.70;;;2.65;;
77417;SDS011;66490;51.484;0.026;2024-01-16T14:47:01;10.02;;;2.35;;
77417;SDS011;66490;51.484;0.026;2024-01-16T14:49:45;7.03;;;2.85;;
77417;SDS011;66490;51.484;0.026;2024-01-16T14:52:32;8.40;;;2.13;;
77417;SDS011;66490;51.484;0.026;2024-01-16T14:55:24;7.15;;;2.05;;
77417;SDS011;66490;51.484;0.026;2024-01-16T14:58:33;7.32;;;2.30;;
77417;SDS011;66490;51.484;0.026;2024-01-16T15:01:19;7.55;;;2.22;;
77417;SDS011;66490;51.484;0.026;2024-01-16T15:07:30;7.17;;;2.00;;
77417;SDS011;66490;51.484;0.026;2024-01-16T15:10:15;7.10;;;1.75;;
77417;SDS011;66490;51.484;0.026;2024-01-16T15:13:12;7.05;;;2.00;;
77417;SDS011;66490;51.484;0.026;2024-01-16T15:16:05;8.55;;;2.35;;
77417;SDS011;66490;51.484;0.026;2024-01-16T15:18:48;6.85;;;2.78;;
77417;SDS011;66490;51.484;0.026;2024-01-16T15:24:40;5.93;;;2.25;;
77417;SDS011;66490;51.484;0.026;2024-01-16T15:27:24;5.78;;;2.10;;
77417;SDS011;66490;51.484;0.026;2024-01-16T15:33:26;8.57;;;2.85;;
77417;SDS011;66490;51.484;0.026;2024-01-16T15:36:52;9.57;;;3.13;;
77417;SDS011;66490;51.484;0.026;2024-01-16T15:39:38;10.50;;;3.00;;
77417;SDS011;66490;51.484;0.026;2024-01-16T15:45:25;8.68;;;2.67;;
77417;SDS011;66490;51.484;0.026;2024-01-16T15:48:13;9.27;;;3.53;;
77417;SDS011;66490;51.484;0.026;2024-01-16T15:51:07;8.23;;;2.50;;
77417;SDS011;66490;51.484;0.026;2024-01-16T15:53:54;7.55;;;2.67;;
77417;SDS011;66490;51.484;0.026;2024-01-16T15:56:44;6.80;;;3.00;;
77417;SDS011;66490;51.484;0.026;2024-01-16T15:59:28;9.57;;;3.10;;
77417;SDS011;66490;51.484;0.026;2024-01-16T16:02:12;9.80;;;3.05;;
77417;SDS011;66490;51.484;0.026;2024-01-16T16:04:56;8.60;;;2.67;;
77417;SDS011;66490;51.484;0.026;2024-01-16T16:07:40;13.45;;;3.28;;
77417;SDS011;66490;51.484;0.026;2024-01-16T16:10:24;7.60;;;2.50;;
77417;SDS011;66490;51.484;0.026;2024-01-16T16:13:11;7.43;;;2.80;;
77417;SDS011;66490;51.484;0.026;2024-01-16T16:15:55;9.00;;;3.03;;
77417;SDS011;66490;51.484;0.026;2024-01-16T16:18:40;7.80;;;2.50;;
77417;SDS011;66490;51.484;0.026;2024-01-16T16:21:29;12.63;;;4.05;;
77417;SDS011;66490;51.484;0.026;2024-01-16T16:24:13;10.77;;;2.92;;
77417;SDS011;66490;51.484;0.026;2024-01-16T16:27:26;7.32;;;3.17;;
77417;SDS011;66490;51.484;0.026;2024-01-16T16:30:19;7.90;;;4.05;;
77417;SDS011;66490;51.484;0.026;2024-01-16T16:33:03;10.27;;;3.13;;
77417;SDS011;66490;51.484;0.026;2024-01-16T16:35:47;8.32;;;3.58;;
77417;SDS011;66490;51.484;0.026;2024-01-16T16:38:33;9.98;;;3.58;;
77417;SDS011;66490;51.484;0.026;2024-01-16T16:41:35;9.48;;;3.42;;
77417;SDS011;66490;51.484;0.026;2024-01-16T16:44:24;10.10;;;4.32;;
77417;SDS011;66490;51.484;0.026;2024-01-16T16:47:09;6.87;;;2.70;;
77417;SDS011;66490;51.484;0.026;2024-01-16T16:49:53;13.32;;;3.05;;
77417;SDS011;66490;51.484;0.026;2024-01-16T16:52:37;10.05;;;3.78;;
77417;SDS011;66490;51.484;0.026;2024-01-16T16:55:21;9.80;;;3.63;;
77417;SDS011;66490;51.484;0.026;2024-01-16T16:58:05;11.05;;;4.22;;
77417;SDS011;66490;51.484;0.026;2024-01-16T17:00:58;11.57;;;3.83;;
77417;SDS011;66490;51.484;0.026;2024-01-16T17:03:42;9.65;;;3.67;;
77417;SDS011;66490;51.484;0.026;2024-01-16T17:06:27;12.45;;;4.32;;
77417;SDS011;66490;51.484;0.026;2024-01-16T17:09:11;12.00;;;4.38;;